Time;durP1;ratioP1;P1;durP2;ratioP2;P2;SDS_P1;SDS_P2;PMS_P1;PMS_P2;Temp;Humidity;BMP_temperature;BMP_pressure;BME280_temperature;BME280_humidity;BME280_pressure;Samples;Min_cycle;Max_cycle;Signal;HPM_P1;HPM_P2
2023/07/19 00:00:13;;;;;;;16.55;15.45;;;;;;;22.30;39.46;99962.06;4808431;29;98390;-75
2023/07/19 00:02:43;;;;;;;16.85;15.75;;;;;;;22.27;39.56;99962.34;4819113;29;96740;-76
2023/07/19 00:05:09;;;;;;;16.73;15.52;;;;;;;22.19;39.75;99954.16;4825379;29;97336;-76
2023/07/19 00:07:35;;;;;;;15.95;14.95;;;;;;;22.28;39.96;99961.38;4825549;29;98620;-75
2023/07/19 00:10:01;;;;;;;16.73;15.60;;;;;;;22.31;39.97;99958.44;4825452;29;98432;-76
2023/07/19 00:12:26;;;;;;;16.45;15.05;;;;;;;22.30;40.17;99948.69;4820828;29;97125;-76
2023/07/19 00:14:52;;;;;;;16.58;15.40;;;;;;;22.26;39.93;99957.16;4830810;29;97125;-76
2023/07/19 00:17:18;;;;;;;16.75;15.55;;;;;;;22.23;39.94;99952.06;4816425;29;98857;-76
2023/07/19 00:19:43;;;;;;;17.48;15.98;;;;;;;22.25;40.03;99950.97;4815109;29;98442;-76
2023/07/19 00:22:09;;;;;;;16.33;15.02;;;;;;;22.14;39.81;99946.53;4819289;29;96992;-76
2023/07/19 00:24:34;;;;;;;17.98;16.52;;;;;;;22.01;39.75;99948.56;4815003;29;96844;-76
2023/07/19 00:27:00;;;;;;;16.90;15.80;;;;;;;22.11;40.02;99951.28;4809767;29;98731;-76
2023/07/19 00:29:25;;;;;;;17.23;15.82;;;;;;;22.10;39.86;99949.59;4811214;29;98302;-75
2023/07/19 00:31:51;;;;;;;16.63;15.60;;;;;;;22.10;40.31;99949.59;4817902;29;96926;-78
2023/07/19 00:34:17;;;;;;;16.90;15.80;;;;;;;22.14;40.46;99949.19;4818011;29;97006;-76
2023/07/19 00:36:42;;;;;;;16.80;15.57;;;;;;;22.15;40.53;99950.03;4829091;29;99026;-76
2023/07/19 00:39:09;;;;;;;17.67;16.48;;;;;;;22.14;40.64;99940.34;4812421;29;100534;-76
2023/07/19 00:41:35;;;;;;;16.17;15.00;;;;;;;22.11;40.32;99949.47;4820135;29;96891;-76
2023/07/19 00:44:01;;;;;;;16.52;15.43;;;;;;;22.11;40.61;99940.59;4816917;29;96887;-76
2023/07/19 00:46:27;;;;;;;17.55;16.15;;;;;;;22.12;40.89;99937.78;4820574;29;98719;-76
2023/07/19 00:48:53;;;;;;;16.73;15.43;;;;;;;22.04;40.98;99939.44;4808852;29;98319;-76
2023/07/19 00:51:19;;;;;;;17.05;15.90;;;;;;;22.02;41.18;99936.91;4821361;29;97322;-76
2023/07/19 00:53:45;;;;;;;16.20;15.02;;;;;;;22.00;41.16;99936.19;4791825;29;97267;-76
2023/07/19 00:56:10;;;;;;;16.88;15.57;;;;;;;21.97;41.49;99928.44;4802057;29;97623;-76
2023/07/19 00:58:36;;;;;;;17.83;16.40;;;;;;;21.93;41.06;99924.34;4816681;29;98922;-75
2023/07/19 01:01:03;;;;;;;17.48;16.05;;;;;;;21.79;40.41;99914.03;4824172;29;97081;-76
2023/07/19 01:03:28;;;;;;;17.77;16.55;;;;;;;21.83;40.58;99918.13;4826656;29;97655;-76
2023/07/19 01:05:57;;;;;;;17.08;15.88;;;;;;;21.72;40.18;99912.88;4819918;29;98887;-77
2023/07/19 01:08:23;;;;;;;17.40;15.98;;;;;;;21.72;40.20;99920.88;4820239;29;98405;-76
2023/07/19 01:10:49;;;;;;;17.73;16.33;;;;;;;21.69;40.66;99925.50;4819103;29;97101;-76
2023/07/19 01:13:17;;;;;;;17.00;15.65;;;;;;;21.74;41.13;99918.94;4802996;29;96857;-76
2023/07/19 01:15:43;;;;;;;17.80;16.50;;;;;;;21.76;41.19;99914.28;4820302;29;98938;-76
2023/07/19 01:18:09;;;;;;;17.08;15.65;;;;;;;21.77;41.31;99918.66;4816621;29;100170;-76
2023/07/19 01:20:34;;;;;;;17.60;16.30;;;;;;;21.74;41.36;99911.75;4819395;29;96866;-76
2023/07/19 01:23:01;;;;;;;16.67;15.52;;;;;;;21.75;41.01;99920.63;4796030;29;97221;-76
2023/07/19 01:25:27;;;;;;;17.88;16.55;;;;;;;21.71;41.02;99914.69;4818026;29;99005;-76
2023/07/19 01:27:52;;;;;;;17.10;15.80;;;;;;;21.74;41.26;99922.44;4817578;29;98440;-76
2023/07/19 01:30:18;;;;;;;17.60;16.23;;;;;;;21.73;41.54;99922.56;4819644;29;97025;-76
2023/07/19 01:32:44;;;;;;;16.40;15.35;;;;;;;21.70;41.69;99923.69;4819775;29;97115;-76
2023/07/19 01:35:10;;;;;;;17.23;15.93;;;;;;;21.70;42.03;99915.69;4818558;29;98653;-76
2023/07/19 01:37:35;;;;;;;16.80;15.57;;;;;;;21.68;41.89;99912.28;4819147;29;98557;-76
2023/07/19 01:40:04;;;;;;;17.08;15.88;;;;;;;21.67;42.20;99908.78;4825557;29;96713;-77
2023/07/19 01:42:31;;;;;;;16.65;15.45;;;;;;;21.63;41.95;99904.66;4799585;29;97069;-76
2023/07/19 01:45:00;;;;;;;16.67;15.57;;;;;;;21.57;41.99;99907.03;4807281;29;98068;-76
2023/07/19 01:47:26;;;;;;;17.35;16.15;;;;;;;21.56;42.19;99906.19;4804212;29;98386;-76
2023/07/19 01:49:51;;;;;;;17.20;16.05;;;;;;;21.47;42.28;99898.97;4803546;29;96866;-76
2023/07/19 01:52:17;;;;;;;17.17;15.98;;;;;;;21.34;42.31;99909.81;4808461;29;96968;-76
2023/07/19 01:54:43;;;;;;;16.73;15.63;;;;;;;21.05;42.44;99919.47;4818533;29;99265;-76
2023/07/19 01:57:10;;;;;;;16.75;15.65;;;;;;;21.02;43.05;99924.06;4811919;29;98357;-76
2023/07/19 01:59:36;;;;;;;17.67;15.88;;;;;;;21.13;43.10;99922.34;4790267;29;96790;-76
2023/07/19 02:02:02;;;;;;;16.73;15.63;;;;;;;21.20;42.72;99919.00;4818490;29;96860;-76
2023/07/19 02:04:27;;;;;;;17.55;16.15;;;;;;;21.19;42.79;99911.13;4826818;29;100393;-76
2023/07/19 02:06:54;;;;;;;17.48;16.17;;;;;;;21.23;42.95;99924.09;4829559;29;98342;-76
2023/07/19 02:09:19;;;;;;;17.27;16.08;;;;;;;21.24;43.09;99920.44;4821295;29;96709;-76
2023/07/19 02:11:45;;;;;;;17.05;15.75;;;;;;;21.24;43.29;99924.94;4823257;29;96804;-76
2023/07/19 02:14:11;;;;;;;17.20;16.00;;;;;;;21.17;43.33;99918.41;4817358;29;100342;-76
2023/07/19 02:16:37;;;;;;;16.55;15.45;;;;;;;21.16;43.60;99914.91;4806784;29;98848;-76
2023/07/19 02:19:03;;;;;;;17.60;16.45;;;;;;;21.12;44.02;99907.28;4809598;29;97030;-76
2023/07/19 02:21:29;;;;;;;17.58;16.35;;;;;;;21.09;44.30;99908.41;4808928;29;97447;-76
2023/07/19 02:23:54;;;;;;;17.90;16.70;;;;;;;21.10;44.70;99906.59;4801848;29;98878;-76
2023/07/19 02:26:21;;;;;;;16.13;15.13;;;;;;;21.09;44.66;99905.75;4802201;29;100600;-76
2023/07/19 02:28:46;;;;;;;17.00;15.70;;;;;;;21.10;44.96;99914.59;4803202;29;96813;-76
2023/07/19 02:31:12;;;;;;;17.85;16.30;;;;;;;21.05;45.21;99908.78;4819660;29;96780;-76
2023/07/19 02:33:37;;;;;;;17.20;15.90;;;;;;;21.00;45.38;99906.50;4823467;29;97650;-76
2023/07/19 02:36:03;;;;;;;18.40;17.00;;;;;;;20.95;45.67;99906.06;4825844;29;98647;-77
2023/07/19 02:38:29;;;;;;;18.17;16.67;;;;;;;20.87;46.03;99898.69;4819799;29;96877;-76
2023/07/19 02:40:59;;;;;;;17.67;16.35;;;;;;;20.82;46.33;99906.22;4835038;29;96776;-76
2023/07/19 02:43:25;;;;;;;18.33;16.80;;;;;;;20.71;46.75;99898.25;4818214;29;98638;-76
2023/07/19 02:45:52;;;;;;;18.48;17.00;;;;;;;20.70;46.87;99899.25;4801639;29;98820;-76
2023/07/19 02:48:18;;;;;;;18.60;17.20;;;;;;;20.75;46.74;99902.38;4827309;29;98661;-76
2023/07/19 02:50:45;;;;;;;18.25;16.73;;;;;;;20.75;46.95;99908.56;4826170;29;97162;-76
2023/07/19 02:53:11;;;;;;;17.75;16.20;;;;;;;20.74;46.88;99904.19;4814847;29;99045;-77
2023/07/19 02:55:36;;;;;;;18.75;17.13;;;;;;;20.72;47.20;99898.13;4812366;29;98620;-77
2023/07/19 02:58:02;;;;;;;18.17;16.83;;;;;;;20.70;46.96;99894.75;4818592;29;96664;-77
2023/07/19 03:00:27;;;;;;;19.80;17.83;;;;;;;20.71;47.29;99891.13;4818412;29;96830;-77
2023/07/19 03:02:53;;;;;;;19.33;17.40;;;;;;;20.70;47.35;99893.91;4817911;29;100973;-77
2023/07/19 03:05:22;;;;;;;18.42;16.92;;;;;;;20.60;47.77;99891.16;4818827;29;98309;-77
2023/07/19 03:07:49;;;;;;;18.83;17.08;;;;;;;20.60;47.94;99893.81;4818120;29;96912;-77
2023/07/19 03:10:15;;;;;;;17.73;16.42;;;;;;;20.54;47.83;99897.84;4829952;29;97335;-76
2023/07/19 03:12:40;;;;;;;18.70;17.13;;;;;;;20.54;48.01;99891.66;4827457;29;99142;-76
2023/07/19 03:15:07;;;;;;;18.63;17.00;;;;;;;20.47;48.11;99888.59;4817563;29;97370;-77
2023/07/19 03:17:33;;;;;;;18.42;16.83;;;;;;;20.49;48.12;99893.81;4786182;29;97140;-77
2023/07/19 03:19:59;;;;;;;19.10;17.30;;;;;;;20.51;48.38;99886.56;4818995;29;97510;-76
2023/07/19 03:22:24;;;;;;;18.60;17.13;;;;;;;20.51;48.23;99900.72;4817643;29;98813;-76
2023/07/19 03:24:50;;;;;;;18.52;16.77;;;;;;;20.47;48.61;99895.75;4812269;29;98498;-77
2023/07/19 03:27:15;;;;;;;19.38;17.65;;;;;;;20.43;48.46;99900.50;4803250;29;99595;-77
2023/07/19 03:29:41;;;;;;;17.98;16.30;;;;;;;20.43;48.81;99897.00;4801149;29;97409;-76
2023/07/19 03:32:07;;;;;;;18.70;17.02;;;;;;;20.44;48.54;99899.53;4795845;29;98774;-76
2023/07/19 03:34:34;;;;;;;18.70;17.13;;;;;;;20.42;48.70;99901.50;4795138;29;98447;-76
2023/07/19 03:36:59;;;;;;;18.67;16.75;;;;;;;20.44;48.63;99894.19;4814609;29;96756;-76
2023/07/19 03:39:25;;;;;;;18.30;16.63;;;;;;;20.42;48.70;99890.81;4811752;29;96869;-76
2023/07/19 03:41:50;;;;;;;17.70;16.15;;;;;;;20.46;48.61;99886.94;4798862;29;100008;-77
2023/07/19 03:44:17;;;;;;;16.85;15.50;;;;;;;20.44;48.56;99880.88;4799191;29;98560;-76
2023/07/19 03:46:43;;;;;;;15.35;14.35;;;;;;;20.47;48.24;99885.09;4800311;29;96743;-76
2023/07/19 03:49:09;;;;;;;16.75;14.40;;;;;;;20.55;47.86;99890.69;4812286;29;99336;-76
2023/07/19 03:51:35;;;;;;;15.98;14.88;;;;;;;20.62;47.68;99883.88;4807792;29;100393;-76
2023/07/19 03:54:01;;;;;;;17.67;15.98;;;;;;;20.62;47.73;99880.34;4814588;29;99624;-78
2023/07/19 03:56:27;;;;;;;17.38;15.60;;;;;;;20.64;47.79;99879.25;4798213;29;97005;-78
2023/07/19 03:58:52;;;;;;;17.67;16.08;;;;;;;20.72;47.53;99886.63;4798252;29;97282;-75
2023/07/19 04:01:18;;;;;;;18.13;16.33;;;;;;;20.73;47.72;99888.31;4812101;29;100526;-78
2023/07/19 04:03:44;;;;;;;17.65;16.35;;;;;;;20.79;47.27;99887.78;4795222;29;99063;-75
2023/07/19 04:06:09;;;;;;;16.92;15.60;;;;;;;20.82;47.23;99884.88;4799913;29;96630;-78
2023/07/19 04:08:35;;;;;;;17.60;16.05;;;;;;;20.87;47.25;99890.69;4799263;29;96699;-78
2023/07/19 04:11:00;;;;;;;17.27;16.00;;;;;;;20.91;47.47;99896.59;4798365;29;97454;-78
2023/07/19 04:13:29;;;;;;;16.30;15.20;;;;;;;20.95;47.32;99893.56;4801569;29;98798;-78
2023/07/19 04:15:54;;;;;;;16.55;15.45;;;;;;;21.05;47.21;99885.59;4827933;29;97341;-78
2023/07/19 04:18:21;;;;;;;17.42;16.23;;;;;;;21.07;47.12;99889.00;4817034;29;97067;-78
2023/07/19 04:20:53;;;;;;;17.92;16.45;;;;;;;21.13;47.21;99890.31;4810645;29;100639;-78
2023/07/19 04:23:19;;;;;;;31.73;16.77;;;;;;;21.17;47.28;99889.06;4808433;29;98296;-78
2023/07/19 04:25:45;;;;;;;16.73;15.23;;;;;;;21.28;47.20;99893.50;4800451;29;97174;-78
2023/07/19 04:28:11;;;;;;;17.80;16.13;;;;;;;21.40;46.82;99901.31;4818886;29;96924;-78
2023/07/19 04:30:37;;;;;;;18.02;16.08;;;;;;;21.52;46.73;99901.25;4816184;29;100427;-78
2023/07/19 04:33:04;;;;;;;17.73;16.33;;;;;;;21.52;46.79;99901.25;4818442;29;100582;-78
2023/07/19 04:35:30;;;;;;;17.10;15.57;;;;;;;21.61;46.32;99893.31;4802378;29;96786;-78
2023/07/19 04:37:56;;;;;;;16.48;15.27;;;;;;;21.79;45.97;99892.69;4803438;29;97034;-78
2023/07/19 04:40:22;;;;;;;16.17;14.85;;;;;;;21.69;46.01;99903.28;4818070;29;100949;-78
2023/07/19 04:42:48;;;;;;;18.00;16.23;;;;;;;21.67;45.79;99894.56;4801176;29;98102;-78
2023/07/19 04:45:14;;;;;;;17.00;15.85;;;;;;;21.62;46.10;99892.31;4799577;29;96924;-78
2023/07/19 04:47:41;;;;;;;17.13;15.60;;;;;;;21.62;45.94;99899.47;4801074;29;96852;-78
2023/07/19 04:50:08;;;;;;;15.55;14.35;;;;;;;;;;4801944;29;98713;-78
2023/07/19 04:52:34;;;;;;;16.13;14.88;;;;;;;22.04;45.62;99897.53;4816023;29;98471;-78
2023/07/19 04:55:05;;;;;;;16.88;15.73;;;;;;;22.15;44.97;99897.41;4801075;29;97296;-78
2023/07/19 04:57:32;;;;;;;17.52;16.15;;;;;;;22.33;44.90;99891.44;4805035;29;96858;-78
2023/07/19 04:59:57;;;;;;;16.13;14.77;;;;;;;22.50;44.45;99893.44;4796862;29;98710;-78
2023/07/19 05:02:23;;;;;;;15.20;14.15;;;;;;;22.66;44.17;99902.72;4800555;29;98294;-78
2023/07/19 05:04:49;;;;;;;15.13;13.98;;;;;;;22.70;43.96;99894.31;4793897;29;97236;-78
2023/07/19 05:07:17;;;;;;;17.65;15.18;;;;;;;22.77;43.32;99890.06;4802088;29;97463;-79
2023/07/19 05:09:43;;;;;;;15.73;14.43;;;;;;;22.91;43.28;99894.16;4802521;29;100537;-78
2023/07/19 05:12:09;;;;;;;16.58;14.95;;;;;;;23.13;43.09;99895.72;4809938;29;99787;-79
2023/07/19 05:14:35;;;;;;;15.93;14.63;;;;;;;23.25;42.86;99889.22;4802242;29;96870;-78
2023/07/19 05:17:01;;;;;;;16.52;15.30;;;;;;;23.33;43.03;99888.50;4801671;29;96881;-78
2023/07/19 05:19:26;;;;;;;15.80;14.38;;;;;;;23.43;42.80;99875.06;4812351;29;98858;-78
2023/07/19 05:21:52;;;;;;;16.80;15.10;;;;;;;23.68;42.62;99876.28;4803229;29;97819;-78
2023/07/19 05:24:17;;;;;;;16.00;14.90;;;;;;;23.99;41.80;99879.53;4797939;29;97249;-78
2023/07/19 05:26:44;;;;;;;17.80;14.45;;;;;;;24.27;40.82;99872.31;4804836;29;97089;-77
2023/07/19 05:29:10;;;;;;;16.77;15.43;;;;;;;24.45;40.67;99874.19;4798210;29;98555;-77
2023/07/19 05:31:35;;;;;;;17.48;15.70;;;;;;;24.62;40.19;99876.06;4798784;29;98386;-77
2023/07/19 05:34:02;;;;;;;17.15;15.60;;;;;;;24.82;39.28;99871.38;4785486;29;97352;-77
2023/07/19 05:36:27;;;;;;;15.57;14.57;;;;;;;24.93;38.73;99868.44;4788316;29;97504;-77
2023/07/19 05:38:53;;;;;;;16.40;15.20;;;;;;;25.31;37.73;99866.41;4789915;29;100270;-77
2023/07/19 05:41:18;;;;;;;17.13;15.80;;;;;;;25.62;37.38;99864.03;4814646;29;97449;-77
2023/07/19 05:43:44;;;;;;;17.77;15.90;;;;;;;26.01;36.94;99868.97;4799075;29;96745;-77
2023/07/19 05:46:10;;;;;;;16.10;14.82;;;;;;;26.25;37.06;99859.28;4800272;29;97390;-78
2023/07/19 05:48:36;;;;;;;16.48;15.25;;;;;;;26.13;37.33;99851.50;4791260;29;98610;-77
2023/07/19 05:51:03;;;;;;;17.58;16.38;;;;;;;26.96;35.98;99837.13;4788062;29;98240;-77
2023/07/19 05:53:29;;;;;;;16.60;15.52;;;;;;;27.29;35.10;99845.22;4789311;29;96990;-77
2023/07/19 05:55:54;;;;;;;16.65;15.30;;;;;;;27.43;35.49;99847.22;4790133;29;96703;-82
2023/07/19 05:58:20;;;;;;;19.92;15.00;;;;;;;28.73;33.79;99839.47;4802556;29;98801;-77
2023/07/19 06:00:47;;;;;;;16.63;15.10;;;;;;;30.07;31.51;99842.28;4795402;29;98215;-77
2023/07/19 06:03:14;;;;;;;16.42;14.82;;;;;;;31.41;29.85;99837.09;4796419;29;96729;-77
2023/07/19 06:05:40;;;;;;;16.35;15.20;;;;;;;33.20;27.35;99837.63;4799449;29;97052;-77
2023/07/19 06:08:05;;;;;;;16.95;15.57;;;;;;;33.50;26.76;99831.69;4814994;29;98891;-78
2023/07/19 06:10:31;;;;;;;18.08;15.98;;;;;;;35.00;25.02;99820.44;4798829;29;98260;-78
2023/07/19 06:12:56;;;;;;;16.95;15.68;;;;;;;34.55;24.82;99832.31;4795015;29;98208;-78
2023/07/19 06:15:22;;;;;;;16.58;15.20;;;;;;;34.41;24.47;99828.81;4800775;29;97086;-77
2023/07/19 06:17:47;;;;;;;17.23;15.80;;;;;;;35.42;23.09;99817.91;4799835;29;98325;-77
2023/07/19 06:20:13;;;;;;;16.63;15.30;;;;;;;36.66;22.40;99821.16;4796810;29;98615;-77
2023/07/19 06:22:39;;;;;;;18.73;17.23;;;;;;;37.28;21.36;99826.19;4796175;29;97243;-78
2023/07/19 06:25:05;;;;;;;17.13;15.73;;;;;;;37.75;21.46;99818.75;4792771;29;97909;-78
2023/07/19 06:27:31;;;;;;;16.77;15.43;;;;;;;38.00;20.70;99821.19;4816061;29;98674;-78
2023/07/19 06:29:58;;;;;;;17.35;16.00;;;;;;;38.76;20.84;99820.91;4809704;29;98894;-78
2023/07/19 06:32:24;;;;;;;17.10;15.73;;;;;;;38.73;20.07;99813.19;4818290;29;98016;-78
2023/07/19 06:34:49;;;;;;;16.75;15.40;;;;;;;39.22;20.00;99813.41;4818583;29;97049;-78
2023/07/19 06:37:15;;;;;;;16.80;15.60;;;;;;;40.12;19.48;99804.97;4818351;29;98698;-79
2023/07/19 06:39:40;;;;;;;16.73;15.70;;;;;;;40.63;19.34;99813.72;4817640;29;98821;-78
2023/07/19 06:42:06;;;;;;;17.40;16.02;;;;;;;40.81;19.11;99806.97;4820187;29;97135;-78
2023/07/19 06:44:32;;;;;;;17.67;16.15;;;;;;;41.32;18.76;99799.91;4816703;29;96955;-78
2023/07/19 06:47:00;;;;;;;18.05;16.48;;;;;;;40.91;18.08;99807.88;4800603;29;98925;-78
2023/07/19 06:49:26;;;;;;;16.23;15.00;;;;;;;41.38;18.38;99801.56;4818659;29;98896;-79
2023/07/19 06:51:51;;;;;;;16.90;15.63;;;;;;;41.94;17.95;99803.75;4817804;29;96646;-79
2023/07/19 06:54:17;;;;;;;17.67;16.33;;;;;;;42.43;17.68;99806.06;4822071;29;97815;-78
2023/07/19 06:56:42;;;;;;;17.48;16.02;;;;;;;42.77;17.55;99797.25;4815688;29;98620;-78
2023/07/19 06:59:08;;;;;;;18.08;16.55;;;;;;;43.14;17.08;99790.56;4817556;29;98398;-78
2023/07/19 07:01:33;;;;;;;19.20;17.67;;;;;;;42.40;17.08;99794.75;4818682;29;97137;-78
2023/07/19 07:03:59;;;;;;;17.27;16.02;;;;;;;42.53;17.07;99785.91;4818827;29;97075;-78
2023/07/19 07:06:24;;;;;;;17.58;16.27;;;;;;;42.34;17.38;99801.38;4810448;29;98559;-78
2023/07/19 07:08:50;;;;;;;17.40;16.00;;;;;;;41.84;17.53;99798.19;4815990;29;98368;-78
2023/07/19 07:11:15;;;;;;;17.17;15.77;;;;;;;42.66;17.34;99790.06;4816540;29;97310;-78
2023/07/19 07:13:41;;;;;;;16.65;15.40;;;;;;;42.85;17.19;99780.16;4817443;29;97002;-79
2023/07/19 07:16:06;;;;;;;16.35;15.25;;;;;;;42.92;17.56;99788.13;4813702;29;98693;-78
2023/07/19 07:18:32;;;;;;;17.00;15.52;;;;;;;42.75;17.23;99785.66;4816560;29;98353;-79
2023/07/19 07:20:57;;;;;;;16.77;15.38;;;;;;;42.82;16.94;99777.09;4819057;29;97327;-79
2023/07/19 07:23:23;;;;;;;16.30;15.20;;;;;;;43.11;17.02;99780.91;4812949;29;98476;-78
2023/07/19 07:25:55;;;;;;;16.48;15.27;;;;;;;42.88;17.08;99778.72;4812222;29;98653;-79
2023/07/19 07:28:21;;;;;;;17.45;16.15;;;;;;;41.55;17.94;99790.38;4815136;29;98527;-79
2023/07/19 07:30:46;;;;;;;16.42;15.40;;;;;;;41.04;17.93;99779.06;4820571;29;96903;-91
2023/07/19 07:33:12;;;;;;;16.98;15.85;;;;;;;41.61;18.19;99778.28;4824074;29;96795;-95
2023/07/19 07:35:37;;;;;;;15.77;14.85;;;;;;;42.40;17.90;99776.28;4815793;29;97322;-94
2023/07/19 07:38:03;;;;;;;16.38;15.27;;;;;;;42.83;17.40;99773.25;4812907;29;98302;-95
2023/07/19 07:40:29;;;;;;;16.83;15.70;;;;;;;43.29;17.43;99765.69;4800897;29;97327;-93
2023/07/19 07:42:55;;;;;;;16.65;15.48;;;;;;;43.55;17.01;99765.59;4814933;29;97147;-96
2023/07/19 07:45:21;;;;;;;16.50;15.40;;;;;;;43.61;16.92;99758.94;4802700;29;99165;-93
2023/07/19 07:47:47;;;;;;;17.20;15.85;;;;;;;43.68;16.73;99762.22;4823242;29;98927;-96
2023/07/19 07:50:13;;;;;;;16.88;15.70;;;;;;;44.12;16.53;99772.47;4823877;29;96753;-96
2023/07/19 07:52:38;;;;;;;17.88;16.48;;;;;;;44.22;16.37;99766.88;4826879;29;97969;-96
2023/07/19 07:55:05;;;;;;;17.00;15.85;;;;;;;44.56;16.41;99768.81;4818231;29;98185;-96
2023/07/19 07:57:33;;;;;;;16.88;15.75;;;;;;;44.67;16.54;99756.53;4815579;29;98847;-92
2023/07/19 08:00:00;;;;;;;17.98;16.55;;;;;;;44.74;16.09;99767.28;4804444;29;97484;-93
2023/07/19 08:02:26;;;;;;;18.42;17.02;;;;;;;44.98;16.09;99756.25;4821647;29;96593;-93
2023/07/19 08:04:52;;;;;;;17.17;16.08;;;;;;;45.37;15.56;99753.28;4813864;29;99580;-87
2023/07/19 08:07:18;;;;;;;16.60;15.38;;;;;;;45.36;15.19;99759.13;4815576;29;98469;-87
2023/07/19 08:09:43;;;;;;;16.80;15.60;;;;;;;45.35;15.03;99754.69;4809973;29;97643;-87
2023/07/19 08:12:09;;;;;;;17.00;15.93;;;;;;;45.66;15.38;99760.69;4814736;29;98878;-88
2023/07/19 08:14:40;;;;;;;16.10;15.10;;;;;;;45.52;15.72;99748.69;4813120;29;98629;-88
2023/07/19 08:17:05;;;;;;;16.75;15.48;;;;;;;45.75;15.36;99750.56;4815530;29;98960;-89
2023/07/19 08:19:31;;;;;;;17.20;15.63;;;;;;;45.68;14.69;99754.88;4806025;29;96827;-88
2023/07/19 08:22:03;;;;;;;16.75;15.65;;;;;;;45.69;14.72;99754.56;4816485;29;96731;-92
2023/07/19 08:24:44;;;;;;;15.82;14.82;;;;;;;45.01;14.58;99747.34;4811380;29;98653;-94
2023/07/19 08:27:37;;;;;;;16.58;15.38;;;;;;;45.43;15.09;99750.47;4791030;29;96874;-93
2023/07/19 08:33:42;;;;;;;;;;;;;;;45.29;14.93;99742.84;4808652;29;97259;-94
2023/07/19 08:36:08;;;;;;;16.92;15.23;;;;;;;44.65;14.84;99733.03;4819904;29;98995;-92
2023/07/19 08:39:23;;;;;;;15.93;14.82;;;;;;;44.42;15.01;99740.16;4817293;29;98665;-91
2023/07/19 08:49:37;;;;;;;15.93;15.00;;;;;;;40.53;17.69;99731.94;4806939;29;97867;-88
2023/07/19 08:52:21;;;;;;;16.17;14.98;;;;;;;40.67;17.64;99730.44;4818002;29;98705;-93
2023/07/19 09:09:40;;;;;;;15.50;14.48;;;;;;;39.85;19.17;99701.38;4819791;29;96791;-75
2023/07/19 09:12:24;;;;;;;15.73;14.55;;;;;;;39.44;19.83;99698.16;4808165;29;97535;-79
2023/07/19 09:22:26;;;;;;;16.75;15.70;;;;;;;37.30;21.46;99692.72;4811849;29;97255;-79
2023/07/19 09:25:13;;;;;;;16.30;15.20;;;;;;;37.27;21.98;99687.75;4811434;29;96769;-81
2023/07/19 09:28:13;;;;;;;16.60;15.30;;;;;;;36.88;21.29;99682.78;4810619;29;99353;-85
2023/07/19 09:37:27;;;;;;;17.77;16.38;;;;;;;34.07;23.76;99671.34;4827657;29;96746;-81
2023/07/19 09:40:33;;;;;;;17.30;16.00;;;;;;;34.20;23.50;99674.75;4830488;29;98836;-81
2023/07/19 09:43:51;;;;;;;17.52;16.25;;;;;;;34.22;23.35;99674.56;4810243;29;98882;-81
2023/07/19 09:47:15;;;;;;;16.50;15.30;;;;;;;34.11;23.99;99665.22;4810985;29;96778;-80
2023/07/19 09:50:14;;;;;;;16.90;15.80;;;;;;;34.51;24.37;99658.59;4819151;29;96953;-81
2023/07/19 09:53:14;;;;;;;17.52;16.23;;;;;;;34.63;24.07;99654.91;4802417;29;99399;-80
2023/07/19 09:56:18;;;;;;;17.63;16.08;;;;;;;34.72;24.34;99658.19;4807434;29;98691;-80
2023/07/19 09:58:53;;;;;;;17.42;16.15;;;;;;;34.68;24.26;99657.81;4817807;29;97403;-81
2023/07/19 10:01:53;;;;;;;16.38;15.30;;;;;;;34.55;23.87;99652.47;4810397;29;97209;-80
2023/07/19 10:04:52;;;;;;;16.88;15.68;;;;;;;34.59;23.97;99653.72;4814179;29;98863;-80
2023/07/19 10:14:11;;;;;;;16.40;15.20;;;;;;;34.34;25.28;99645.53;4813475;29;96976;-81
2023/07/19 10:16:40;;;;;;;16.92;15.73;;;;;;;34.40;25.00;99641.09;4819021;29;98920;-81
2023/07/19 10:19:43;;;;;;;17.35;16.00;;;;;;;34.22;24.72;99636.44;4801899;29;99180;-81
2023/07/19 10:55:17;;;;;;;16.85;15.63;;;;;;;33.80;25.21;99620.63;4549826;29;103802;-80
2023/07/19 10:57:43;;;;;;;16.88;15.68;;;;;;;33.81;25.95;99618.72;4811405;29;97398;-83
2023/07/19 11:00:39;;;;;;;17.80;16.38;;;;;;;33.86;25.63;99618.03;4815665;29;99299;-82
2023/07/19 11:04:04;;;;;;;16.45;15.35;;;;;;;33.72;25.49;99614.59;4802912;29;96947;-79
2023/07/19 11:06:55;;;;;;;16.05;14.70;;;;;;;33.65;26.74;99611.91;4815921;29;97417;-73
2023/07/19 11:15:42;;;;;;;15.90;14.80;;;;;;;33.47;27.82;99604.47;4806747;29;98826;-82
2023/07/19 11:18:45;;;;;;;16.90;15.48;;;;;;;33.23;27.54;99592.47;4817550;29;96869;-80
2023/07/19 11:21:45;;;;;;;16.70;15.55;;;;;;;33.09;26.64;99588.16;4815261;29;97425;-82
2023/07/19 11:28:53;;;;;;;16.83;15.57;;;;;;;32.88;25.89;99587.38;4834044;29;96807;-82
2023/07/19 11:39:20;;;;;;;16.27;15.15;;;;;;;31.82;26.38;99575.81;4816053;29;97093;-81
2023/07/19 11:41:51;;;;;;;17.20;15.95;;;;;;;32.02;27.80;99574.78;4817174;29;98597;-81
2023/07/19 11:44:57;;;;;;;17.05;15.90;;;;;;;31.93;27.52;99578.78;4816297;29;97059;-81
2023/07/19 11:48:12;;;;;;;16.80;15.57;;;;;;;32.01;27.53;99575.03;4814475;29;97390;-81
2023/07/19 11:54:42;;;;;;;17.48;16.08;;;;;;;32.37;26.24;99569.09;4816495;29;98903;-80
2023/07/19 11:57:29;;;;;;;17.38;16.27;;;;;;;32.45;26.46;99566.19;4805179;29;96912;-80
2023/07/19 12:06:50;;;;;;;15.10;14.10;;;;;;;32.39;26.64;99569.75;4813551;29;98548;-80
2023/07/19 12:09:24;;;;;;;16.67;15.55;;;;;;;32.40;26.61;99562.44;4821946;29;96925;-81
2023/07/19 12:15:52;;;;;;;;;;;;;;;32.21;26.13;99547.84;4814922;29;97163;-81
2023/07/19 12:18:46;;;;;;;16.48;15.23;;;;;;;32.31;26.59;99550.13;4816385;29;98616;-81
2023/07/19 12:21:23;;;;;;;16.93;15.63;;;;;;;32.20;27.10;99552.47;4815113;29;96899;-82
2023/07/19 12:24:27;;;;;;;17.35;15.90;;;;;;;32.04;26.34;99549.34;4800007;29;97820;-82
2023/07/19 12:27:14;;;;;;;17.35;16.15;;;;;;;32.01;26.45;99542.44;4819613;29;98832;-82
2023/07/19 12:29:46;;;;;;;17.15;15.90;;;;;;;32.12;27.16;99533.69;4810797;29;99224;-81
2023/07/19 12:32:36;;;;;;;17.00;15.70;;;;;;;32.09;26.45;99539.53;4816434;29;96906;-81
2023/07/19 12:38:43;;;;;;;16.85;15.68;;;;;;;32.09;26.10;99536.00;4819467;29;97860;-80
2023/07/19 12:41:31;;;;;;;16.83;15.63;;;;;;;31.98;25.96;99546.41;4819211;29;98533;-81
2023/07/19 12:43:59;;;;;;;17.45;15.75;;;;;;;31.97;26.15;99539.34;4808518;29;96908;-81
2023/07/19 12:46:28;;;;;;;16.67;15.60;;;;;;;31.84;25.72;99535.75;4818374;29;96710;-81
2023/07/19 12:49:30;;;;;;;16.23;14.93;;;;;;;31.78;26.05;99526.56;4819308;29;98870;-81
2023/07/19 12:52:17;;;;;;;17.73;16.08;;;;;;;31.61;25.96;99517.19;4817116;29;98629;-81
2023/07/19 12:55:07;;;;;;;16.33;15.10;;;;;;;31.55;26.16;99527.81;4817595;29;96960;-82
2023/07/19 12:57:34;;;;;;;16.77;15.68;;;;;;;31.59;26.25;99530.94;4829465;29;97514;-82
2023/07/19 13:03:17;;;;;;;17.50;15.75;;;;;;;31.51;26.37;99521.16;4813919;29;98462;-82
2023/07/19 13:05:55;;;;;;;16.75;15.57;;;;;;;31.45;26.66;99513.84;4815162;29;97442;-82
2023/07/19 13:09:04;;;;;;;16.95;15.65;;;;;;;31.65;26.61;99519.28;4819746;29;96970;-81
2023/07/19 13:12:19;;;;;;;18.23;15.95;;;;;;;31.73;26.91;99516.34;4808947;29;98475;-81
2023/07/19 13:15:06;;;;;;;16.35;14.93;;;;;;;31.71;25.16;99506.75;4815029;29;96899;-81
2023/07/19 13:17:50;;;;;;;15.90;14.68;;;;;;;31.71;25.20;99499.47;4816335;29;97409;-81
2023/07/19 13:20:40;;;;;;;16.00;14.98;;;;;;;31.66;24.74;99504.66;4818837;29;96955;-81
2023/07/19 13:23:30;;;;;;;16.00;14.82;;;;;;;31.65;24.12;99494.88;4817144;29;98740;-82
2023/07/19 13:25:56;;;;;;;17.52;15.90;;;;;;;31.61;23.51;99499.03;4818627;29;98516;-81
2023/07/19 13:31:39;;;;;;;16.13;15.00;;;;;;;31.61;23.49;99501.75;4818500;29;96929;-81
2023/07/19 13:34:19;;;;;;;17.02;15.68;;;;;;;31.54;23.98;99496.31;4804698;29;99112;-81
2023/07/19 13:37:25;;;;;;;16.33;15.18;;;;;;;31.57;22.30;99495.06;4800726;29;100203;-81